createdAt,value
2019-03-02T00:01:13.406Z,2.00
2019-03-02T00:03:42.624Z,2.10
2019-03-02T00:06:11.078Z,2.00
2019-03-02T00:08:39.153Z,2.20
2019-03-02T00:11:07.270Z,1.90
2019-03-02T00:13:35.417Z,2.10
2019-03-02T00:16:04.289Z,2.27
2019-03-02T00:18:33.547Z,2.30
2019-03-02T00:21:01.689Z,2.73
2019-03-02T00:23:29.770Z,2.50
2019-03-02T00:25:57.933Z,1.90
2019-03-02T00:28:26.177Z,2.20
2019-03-02T00:30:54.865Z,1.97
2019-03-02T00:33:24.350Z,2.20
2019-03-02T00:35:52.422Z,1.80
2019-03-02T00:38:20.683Z,2.20
2019-03-02T00:40:48.759Z,2.27
2019-03-02T00:43:17.184Z,2.30
2019-03-02T00:45:45.962Z,3.17
2019-03-02T00:48:15.494Z,2.33
2019-03-02T00:50:43.901Z,2.57
2019-03-02T00:53:12.027Z,2.17
2019-03-02T00:55:40.136Z,1.73
2019-03-02T00:58:08.632Z,2.10
2019-03-02T01:00:37.150Z,2.10
2019-03-02T01:03:05.391Z,2.30
2019-03-02T01:05:36.366Z,1.70
2019-03-02T01:08:04.256Z,2.03
2019-03-02T01:10:32.464Z,2.47
2019-03-02T01:13:00.787Z,2.00
2019-03-02T01:15:29.096Z,1.93
2019-03-02T01:17:57.159Z,1.90
2019-03-02T01:20:28.757Z,2.27
2019-03-02T01:22:55.570Z,1.47
2019-03-02T01:25:23.915Z,2.57
2019-03-02T01:27:52.068Z,2.10
2019-03-02T01:30:20.675Z,1.87
2019-03-02T01:32:52.534Z,1.93
2019-03-02T01:35:20.520Z,1.90
2019-03-02T01:37:49.089Z,3.20
2019-03-02T01:40:17.505Z,2.03
2019-03-02T01:42:45.664Z,2.10
2019-03-02T01:45:15.634Z,2.60
2019-03-02T01:47:43.986Z,2.23
2019-03-02T01:50:15.242Z,2.47
2019-03-02T01:52:43.428Z,2.30
2019-03-02T01:55:12.088Z,2.90
2019-03-02T01:57:40.176Z,3.20
2019-03-02T02:00:16.920Z,3.20
2019-03-02T02:02:45.813Z,3.50
2019-03-02T02:05:13.990Z,2.90
2019-03-02T02:07:42.242Z,2.67
2019-03-02T02:10:11.796Z,3.10
2019-03-02T02:12:39.990Z,4.03
2019-03-02T02:15:12.256Z,3.70
2019-03-02T02:17:40.709Z,3.83
2019-03-02T02:20:11.001Z,3.43
2019-03-02T02:22:40.839Z,3.77
2019-03-02T02:25:10.696Z,3.30
2019-03-02T02:27:39.359Z,3.40
2019-03-02T02:30:18.619Z,3.10
2019-03-02T02:32:43.817Z,3.50
2019-03-02T02:35:11.953Z,3.57
2019-03-02T02:37:41.083Z,3.53
2019-03-02T02:40:12.453Z,4.23
2019-03-02T02:42:43.159Z,3.67
2019-03-02T02:45:15.179Z,3.40
2019-03-02T02:47:50.467Z,3.63
2019-03-02T02:50:13.052Z,3.23
2019-03-02T02:52:42.552Z,2.80
2019-03-02T02:55:10.650Z,3.57
2019-03-02T02:57:39.766Z,3.40
2019-03-02T03:00:20.124Z,3.13
2019-03-02T03:02:48.507Z,3.13
2019-03-02T03:05:17.637Z,3.30
2019-03-02T03:07:51.871Z,3.40
2019-03-02T03:10:38.431Z,3.00
2019-03-02T03:13:06.593Z,3.63
2019-03-02T03:15:39.968Z,2.67
2019-03-02T03:18:12.361Z,2.63
2019-03-02T03:20:39.237Z,2.83
2019-03-02T03:23:07.354Z,2.97
2019-03-02T03:25:35.456Z,2.97
2019-03-02T03:28:03.549Z,2.87
2019-03-02T03:30:38.808Z,3.00
2019-03-02T03:33:02.059Z,2.87
2019-03-02T03:35:30.162Z,2.30
2019-03-02T03:37:58.404Z,2.80
2019-03-02T03:40:27.171Z,2.10
2019-03-02T03:43:02.272Z,2.43
2019-03-02T03:45:27.974Z,2.37
2019-03-02T03:47:55.639Z,2.33
2019-03-02T03:50:23.764Z,2.13
2019-03-02T03:52:51.842Z,1.83
2019-03-02T03:55:25.218Z,2.50
2019-03-02T03:57:49.967Z,2.80
2019-03-02T04:00:18.077Z,2.33
2019-03-02T04:02:46.173Z,2.10
2019-03-02T04:05:14.603Z,2.47
2019-03-02T04:07:48.189Z,2.10
2019-03-02T04:10:13.420Z,2.33
2019-03-02T04:12:41.948Z,2.10
2019-03-02T04:15:10.443Z,2.60
2019-03-02T04:17:40.705Z,2.67
2019-03-02T04:20:14.795Z,2.40
2019-03-02T04:22:44.758Z,2.70
2019-03-02T04:25:17.918Z,2.60
2019-03-02T04:27:43.623Z,2.73
2019-03-02T04:30:11.867Z,2.40
2019-03-02T04:32:39.943Z,2.70
2019-03-02T04:35:08.480Z,2.50
2019-03-02T04:37:36.584Z,2.57
2019-03-02T04:40:05.254Z,2.57
2019-03-02T04:42:33.344Z,2.70
2019-03-02T04:45:04.536Z,2.70
2019-03-02T04:47:31.523Z,3.07
2019-03-02T04:49:59.655Z,2.43
2019-03-02T04:52:27.854Z,2.33
2019-03-02T04:54:56.049Z,2.70
2019-03-02T04:57:24.134Z,2.40
2019-03-02T04:59:53.667Z,2.53
2019-03-02T05:02:22.532Z,2.53
2019-03-02T05:04:50.653Z,2.13
2019-03-02T05:07:18.768Z,2.13
2019-03-02T05:09:48.530Z,2.10
2019-03-02T05:12:17.052Z,2.77
2019-03-02T05:14:45.262Z,2.70
2019-03-02T05:17:13.494Z,2.40
2019-03-02T05:19:42.110Z,2.10
2019-03-02T05:22:10.239Z,2.87
2019-03-02T05:24:40.517Z,2.73
2019-03-02T05:27:08.520Z,2.40
2019-03-02T05:29:36.645Z,2.23
2019-03-02T05:32:04.699Z,2.30
2019-03-02T05:34:32.835Z,2.10
2019-03-02T05:37:02.875Z,2.67
2019-03-02T05:39:31.003Z,2.20
2019-03-02T05:41:59.193Z,2.60
2019-03-02T05:44:27.310Z,2.43
2019-03-02T05:46:57.841Z,2.03
2019-03-02T05:49:25.860Z,1.90
2019-03-02T05:51:53.915Z,2.20
2019-03-02T05:54:22.154Z,2.63
2019-03-02T05:56:50.655Z,2.37
2019-03-02T05:59:18.804Z,2.30
2019-03-02T06:01:47.045Z,2.20
2019-03-02T06:04:15.271Z,2.23
2019-03-02T06:06:43.494Z,2.37
2019-03-02T06:09:13.936Z,2.37
2019-03-02T06:11:41.622Z,2.33
2019-03-02T06:14:09.896Z,2.20
2019-03-02T06:16:38.016Z,2.87
2019-03-02T06:19:06.137Z,2.00
2019-03-02T06:21:34.255Z,2.03
2019-03-02T06:24:05.343Z,2.60
2019-03-02T06:26:35.456Z,2.00
2019-03-02T06:29:03.063Z,1.67
2019-03-02T06:31:31.173Z,2.20
2019-03-02T06:33:59.287Z,1.93
2019-03-02T06:36:27.479Z,2.20
2019-03-02T06:38:55.663Z,1.87
2019-03-02T06:41:23.814Z,1.83
2019-03-02T06:43:55.057Z,1.93
2019-03-02T06:46:23.452Z,2.00
2019-03-02T06:48:51.810Z,1.90
2019-03-02T06:51:20.278Z,1.67
2019-03-02T06:53:48.565Z,1.90
2019-03-02T06:56:16.672Z,1.70
2019-03-02T06:58:44.874Z,2.00
2019-03-02T07:01:13.169Z,1.47
2019-03-02T07:03:42.878Z,1.93
2019-03-02T07:06:11.627Z,1.70
2019-03-02T07:08:40.962Z,1.60
2019-03-02T07:11:09.004Z,1.50
2019-03-02T07:13:37.143Z,1.50
2019-03-02T07:16:05.298Z,1.70
2019-03-02T07:18:43.174Z,1.30
2019-03-02T07:21:11.549Z,1.43
2019-03-02T07:23:39.690Z,1.60
2019-03-02T07:26:07.865Z,1.50
2019-03-02T07:28:38.855Z,1.53
2019-03-02T07:31:06.062Z,1.10
2019-03-02T07:33:34.610Z,1.43
2019-03-02T07:36:02.891Z,1.53
2019-03-02T07:38:31.758Z,1.20
2019-03-02T07:40:59.932Z,1.17
2019-03-02T07:43:28.011Z,1.60
2019-03-02T07:45:56.119Z,1.63
2019-03-02T07:48:24.230Z,1.47
2019-03-02T07:50:52.661Z,1.87
2019-03-02T07:53:20.774Z,2.67
2019-03-02T07:55:48.973Z,2.43
2019-03-02T07:58:19.789Z,2.00
2019-03-02T08:00:47.140Z,1.80
2019-03-02T08:03:15.404Z,1.70
2019-03-02T08:05:47.030Z,1.40
2019-03-02T08:08:13.914Z,1.40
2019-03-02T08:10:43.027Z,1.47
2019-03-02T08:13:12.330Z,1.60
2019-03-02T08:15:40.625Z,1.30
2019-03-02T08:18:08.744Z,1.57
2019-03-02T08:20:36.894Z,1.63
2019-03-02T08:23:05.009Z,1.70
2019-03-02T08:25:33.138Z,1.73
2019-03-02T08:28:01.781Z,1.40
2019-03-02T08:30:33.378Z,1.30
2019-03-02T08:32:59.913Z,1.40
2019-03-02T08:35:28.381Z,1.40
2019-03-02T08:37:56.413Z,1.50
2019-03-02T08:40:24.641Z,1.80
2019-03-02T08:42:52.842Z,1.50
2019-03-02T08:45:21.066Z,1.43
2019-03-02T08:47:49.114Z,1.27
2019-03-02T08:50:18.804Z,1.70
2019-03-02T08:52:47.119Z,1.70
2019-03-02T08:55:15.459Z,1.40
2019-03-02T08:57:44.180Z,1.43
2019-03-02T09:00:16.902Z,1.50
2019-03-02T09:02:45.328Z,1.43
2019-03-02T09:05:14.348Z,1.87
2019-03-02T09:07:42.446Z,2.07
2019-03-02T09:10:13.578Z,1.60
2019-03-02T09:12:41.810Z,1.70
2019-03-02T09:15:15.366Z,2.10
2019-03-02T09:17:43.800Z,2.93
2019-03-02T09:20:11.895Z,2.70
2019-03-02T09:22:39.994Z,2.20
2019-03-02T09:25:11.261Z,2.10
2019-03-02T09:27:40.382Z,1.93
2019-03-02T09:30:12.354Z,1.87
2019-03-02T09:32:40.621Z,2.10
2019-03-02T09:35:09.123Z,2.10
2019-03-02T09:37:37.280Z,2.10
2019-03-02T09:40:06.515Z,1.70
2019-03-02T09:42:40.272Z,2.07
2019-03-02T09:45:13.834Z,2.47
2019-03-02T09:47:43.961Z,1.87
2019-03-02T09:50:14.427Z,2.00
2019-03-02T09:52:42.743Z,2.20
2019-03-02T09:55:14.890Z,2.00
2019-03-02T09:57:47.536Z,1.93
2019-03-02T10:00:23.507Z,1.93
2019-03-02T10:02:50.024Z,1.93
2019-03-02T10:05:19.589Z,2.03
2019-03-02T10:07:47.732Z,2.30
2019-03-02T10:10:16.813Z,1.90
2019-03-02T10:12:47.362Z,2.13
2019-03-02T10:15:19.373Z,2.37
2019-03-02T10:17:48.290Z,1.93
2019-03-02T10:20:16.800Z,2.07
2019-03-02T10:22:44.902Z,2.70
2019-03-02T10:25:14.156Z,2.73
2019-03-02T10:27:43.345Z,2.10
2019-03-02T10:30:14.608Z,2.10
2019-03-02T10:32:42.760Z,2.77
2019-03-02T10:35:13.663Z,2.47
2019-03-02T10:37:43.502Z,2.50
2019-03-02T10:40:13.709Z,2.20
2019-03-02T10:42:42.848Z,3.40
2019-03-02T10:45:15.356Z,2.53
2019-03-02T10:47:44.287Z,2.93
2019-03-02T10:50:19.540Z,2.90
2019-03-02T10:52:49.035Z,3.90
2019-03-02T10:55:19.095Z,3.63
2019-03-02T10:57:47.596Z,3.83
2019-03-02T11:00:29.285Z,6.60
2019-03-02T11:02:57.326Z,4.50
2019-03-02T11:05:45.468Z,3.97
2019-03-02T11:08:28.843Z,4.87
2019-03-02T11:11:19.811Z,6.17
2019-03-02T11:14:06.588Z,6.70
2019-03-02T11:16:49.124Z,5.60
2019-03-02T11:19:39.994Z,7.17
2019-03-02T11:22:26.913Z,6.90
2019-03-02T11:25:23.734Z,6.47
2019-03-02T11:28:14.705Z,5.63
2019-03-02T11:31:01.397Z,5.40
2019-03-02T11:33:54.934Z,7.23
2019-03-02T11:36:45.856Z,5.73
2019-03-02T11:39:28.126Z,6.40
2019-03-02T11:42:19.233Z,4.93
2019-03-02T11:45:05.803Z,5.37
2019-03-02T11:48:02.975Z,5.57
2019-03-02T11:50:50.875Z,4.07
2019-03-02T11:53:24.178Z,4.37
2019-03-02T11:56:25.056Z,3.50
2019-03-02T11:59:11.775Z,4.43
2019-03-02T12:01:51.676Z,4.77
2019-03-02T12:04:38.204Z,4.70
2019-03-02T12:07:31.913Z,4.90
2019-03-02T12:10:06.416Z,5.43
2019-03-02T12:12:43.890Z,5.50
2019-03-02T12:15:19.665Z,6.20
2019-03-02T12:17:55.434Z,7.57
2019-03-02T12:20:55.388Z,7.43
2019-03-02T12:23:54.759Z,7.37
2019-03-02T12:26:42.908Z,6.90
2019-03-02T12:29:50.793Z,6.80
2019-03-02T12:32:40.285Z,7.27
2019-03-02T12:35:26.835Z,6.63
2019-03-02T12:38:07.313Z,6.37
2019-03-02T12:41:15.697Z,6.10
2019-03-02T12:44:02.831Z,5.97
2019-03-02T12:46:51.767Z,5.43
2019-03-02T12:49:44.030Z,4.83
2019-03-02T12:52:25.063Z,5.30
2019-03-02T12:55:08.576Z,5.30
2019-03-02T12:57:59.005Z,7.57
2019-03-02T13:00:36.714Z,9.57
2019-03-02T13:03:22.355Z,6.37
2019-03-02T13:06:15.834Z,6.07
2019-03-02T13:09:12.650Z,5.93
2019-03-02T13:11:54.108Z,6.20
2019-03-02T13:14:54.285Z,5.23
2019-03-02T13:17:44.773Z,5.27
2019-03-02T13:20:31.235Z,4.97
2019-03-02T13:23:06.573Z,5.43
2019-03-02T13:26:13.556Z,4.43
2019-03-02T13:28:49.109Z,4.97
2019-03-02T13:31:40.022Z,4.17
2019-03-02T13:34:43.836Z,4.27
2019-03-02T13:37:47.253Z,4.00
2019-03-02T13:40:36.391Z,4.50
2019-03-02T13:43:24.591Z,4.50
2019-03-02T13:46:03.685Z,4.37
2019-03-02T13:48:53.036Z,4.03
2019-03-02T13:51:46.895Z,4.67
2019-03-02T13:54:38.428Z,4.27
2019-03-02T13:57:29.225Z,4.37
2019-03-02T14:00:23.251Z,5.33
2019-03-02T14:03:13.869Z,4.33
2019-03-02T14:05:55.047Z,4.73
2019-03-02T14:08:33.216Z,4.70
2019-03-02T14:11:20.007Z,5.53
2019-03-02T14:14:08.324Z,5.27
2019-03-02T14:16:58.866Z,6.20
2019-03-02T14:19:37.978Z,5.30
2019-03-02T14:22:31.743Z,5.47
2019-03-02T14:25:34.258Z,5.63
2019-03-02T14:28:14.067Z,6.20
2019-03-02T14:30:57.085Z,6.83
2019-03-02T14:33:39.291Z,6.63
2019-03-02T14:36:30.646Z,6.83
2019-03-02T14:39:15.987Z,6.90
2019-03-02T14:42:12.566Z,6.53
2019-03-02T14:44:53.172Z,7.03
2019-03-02T14:47:41.505Z,7.70
2019-03-02T14:50:28.361Z,6.80
2019-03-02T14:53:09.458Z,7.13
2019-03-02T14:55:51.671Z,7.40
2019-03-02T14:58:38.888Z,7.20
2019-03-02T15:01:29.173Z,7.73
2019-03-02T15:04:29.100Z,7.67
2019-03-02T15:07:11.467Z,8.70
2019-03-02T15:10:05.102Z,7.87
2019-03-02T15:12:58.856Z,7.57
2019-03-02T15:15:41.746Z,8.07
2019-03-02T15:18:29.050Z,7.67
2019-03-02T15:21:18.146Z,7.60
2019-03-02T15:24:21.089Z,7.57
2019-03-02T15:27:12.813Z,8.53
2019-03-02T15:30:06.581Z,8.07
2019-03-02T15:33:00.298Z,8.43
2019-03-02T15:35:39.385Z,8.27
2019-03-02T15:38:22.080Z,8.50
2019-03-02T15:41:00.632Z,8.20
2019-03-02T15:43:39.453Z,9.17
2019-03-02T15:46:26.445Z,8.80
2019-03-02T15:49:16.270Z,10.53
2019-03-02T15:51:52.089Z,10.33
2019-03-02T15:54:42.551Z,9.87
2019-03-02T15:57:17.585Z,9.70
2019-03-02T16:00:09.931Z,10.27
2019-03-02T16:02:54.096Z,10.57
2019-03-02T16:05:37.545Z,10.40
2019-03-02T16:08:18.221Z,12.13
2019-03-02T16:11:07.027Z,11.30
2019-03-02T16:14:01.058Z,11.20
2019-03-02T16:16:59.909Z,12.07
2019-03-02T16:19:35.965Z,13.00
2019-03-02T16:22:16.477Z,12.47
2019-03-02T16:25:05.030Z,13.43
2019-03-02T16:27:58.732Z,12.90
2019-03-02T16:30:34.227Z,12.77
2019-03-02T16:33:22.424Z,13.23
2019-03-02T16:36:12.150Z,13.43
2019-03-02T16:39:12.393Z,13.87
2019-03-02T16:42:13.986Z,13.57
2019-03-02T16:45:14.741Z,14.47
2019-03-02T16:48:05.246Z,14.80
2019-03-02T16:51:02.439Z,15.03
2019-03-02T16:53:45.555Z,14.80
2019-03-02T16:56:39.293Z,14.77
2019-03-02T16:59:18.741Z,15.53
2019-03-02T17:02:03.982Z,17.30
2019-03-02T17:04:46.863Z,15.67
2019-03-02T17:07:40.404Z,16.90
2019-03-02T17:10:28.937Z,17.87
2019-03-02T17:13:18.159Z,17.20
2019-03-02T17:16:05.038Z,19.00
2019-03-02T17:18:53.670Z,17.23
2019-03-02T17:21:33.792Z,19.13
2019-03-02T17:24:11.945Z,20.50
2019-03-02T17:26:55.423Z,19.30
2019-03-02T17:29:49.597Z,19.80
2019-03-02T17:32:42.172Z,20.03
2019-03-02T17:35:31.044Z,19.77
2019-03-02T17:38:13.230Z,20.13
2019-03-02T17:41:18.736Z,19.20
2019-03-02T17:43:56.883Z,21.07
2019-03-02T17:46:50.870Z,22.73
2019-03-02T17:49:44.520Z,19.97
2019-03-02T17:52:46.776Z,20.47
2019-03-02T17:55:50.998Z,21.53
2019-03-02T17:58:41.744Z,21.67
2019-03-02T18:01:35.748Z,22.03
2019-03-02T18:04:22.253Z,21.60
2019-03-02T18:06:59.240Z,22.17
2019-03-02T18:09:42.532Z,21.27
2019-03-02T18:12:17.490Z,21.90
2019-03-02T18:15:01.954Z,22.87
2019-03-02T18:17:56.931Z,21.50
2019-03-02T18:20:25.304Z,22.00
2019-03-02T18:22:53.397Z,20.73
2019-03-02T18:25:21.768Z,21.43
2019-03-02T18:27:50.659Z,21.67
2019-03-02T18:30:18.980Z,22.77
2019-03-02T18:32:48.620Z,22.23
2019-03-02T18:35:16.769Z,23.63
2019-03-02T18:37:44.830Z,24.23
2019-03-02T18:40:13.167Z,22.93
2019-03-02T18:42:41.292Z,23.03
2019-03-02T18:45:10.945Z,22.70
2019-03-02T18:47:39.144Z,21.47
2019-03-02T18:50:19.651Z,21.67
2019-03-02T18:52:56.999Z,22.43
2019-03-02T18:55:25.750Z,22.80
2019-03-02T18:57:55.606Z,22.50
2019-03-02T19:00:27.081Z,22.47
2019-03-02T19:02:55.858Z,22.40
2019-03-02T19:05:30.473Z,21.47
2019-03-02T19:08:00.522Z,21.63
2019-03-02T19:10:29.177Z,22.07
2019-03-02T19:12:57.470Z,22.57
2019-03-02T19:15:25.886Z,24.13
2019-03-02T19:17:54.027Z,22.53
2019-03-02T19:20:22.629Z,22.57
2019-03-02T19:22:51.394Z,23.63
2019-03-02T19:25:20.156Z,22.47
2019-03-02T19:27:48.213Z,23.70
2019-03-02T19:30:18.522Z,23.27
2019-03-02T19:32:46.807Z,23.80
2019-03-02T19:35:14.974Z,23.03
2019-03-02T19:37:43.529Z,22.93
2019-03-02T19:40:16.145Z,22.70
2019-03-02T19:42:44.223Z,24.20
2019-03-02T19:45:12.664Z,21.17
2019-03-02T19:47:40.780Z,22.93
2019-03-02T19:50:13.050Z,22.37
2019-03-02T19:52:41.310Z,21.90
2019-03-02T19:55:10.113Z,21.53
2019-03-02T19:57:38.804Z,21.13
2019-03-02T20:00:15.127Z,22.40
2019-03-02T20:02:43.374Z,22.27
2019-03-02T20:05:11.925Z,22.17
2019-03-02T20:07:40.013Z,22.17
2019-03-02T20:10:09.192Z,22.93
2019-03-02T20:12:37.264Z,22.57
2019-03-02T20:15:10.050Z,22.33
2019-03-02T20:17:38.124Z,22.50
2019-03-02T20:20:09.356Z,21.87
2019-03-02T20:22:37.430Z,21.43
2019-03-02T20:25:07.506Z,21.43
2019-03-02T20:27:35.699Z,21.77
2019-03-02T20:30:06.460Z,22.27
2019-03-02T20:32:34.614Z,22.90
2019-03-02T20:35:02.719Z,22.27
2019-03-02T20:37:30.847Z,20.77
2019-03-02T20:39:59.282Z,20.30
2019-03-02T20:42:27.671Z,21.20
2019-03-02T20:44:56.069Z,20.20
2019-03-02T20:47:24.176Z,22.33
2019-03-02T20:49:53.644Z,21.03
2019-03-02T20:52:21.834Z,21.87
2019-03-02T20:54:49.935Z,21.93
2019-03-02T20:57:18.579Z,21.33
2019-03-02T20:59:46.728Z,21.60
2019-03-02T21:02:14.821Z,21.67
2019-03-02T21:04:43.069Z,21.73
2019-03-02T21:07:11.219Z,22.03
2019-03-02T21:09:40.816Z,22.37
2019-03-02T21:12:09.011Z,22.53
2019-03-02T21:14:37.430Z,22.20
2019-03-02T21:17:05.577Z,22.97
2019-03-02T21:19:33.666Z,23.33
2019-03-02T21:22:01.863Z,22.70
2019-03-02T21:24:29.952Z,23.37
2019-03-02T21:26:58.144Z,22.83
2019-03-02T21:29:26.413Z,24.30
2019-03-02T21:31:54.737Z,23.33
2019-03-02T21:34:22.811Z,24.77
2019-03-02T21:36:51.429Z,23.53
2019-03-02T21:39:21.042Z,24.23
2019-03-02T21:41:49.401Z,24.33
2019-03-02T21:44:17.524Z,24.37
2019-03-02T21:46:45.642Z,24.03
2019-03-02T21:49:13.730Z,24.53
2019-03-02T21:51:42.177Z,23.90
2019-03-02T21:54:10.374Z,24.17
2019-03-02T21:56:38.441Z,24.63
2019-03-02T21:59:06.563Z,26.10
2019-03-02T22:01:34.636Z,26.40
2019-03-02T22:04:02.756Z,26.30
2019-03-02T22:06:30.866Z,26.97
2019-03-02T22:08:59.837Z,28.63
2019-03-02T22:11:27.904Z,28.47
2019-03-02T22:13:55.985Z,27.40
2019-03-02T22:16:24.189Z,28.47
2019-03-02T22:18:52.344Z,27.37
2019-03-02T22:21:20.517Z,27.27
2019-03-02T22:23:50.397Z,27.10
2019-03-02T22:26:18.470Z,27.13
2019-03-02T22:28:46.679Z,26.10
2019-03-02T22:31:14.924Z,27.77
2019-03-02T22:33:43.147Z,26.97
2019-03-02T22:36:11.347Z,27.37
2019-03-02T22:38:39.446Z,26.90
2019-03-02T22:41:07.560Z,26.47
2019-03-02T22:43:35.739Z,27.57
2019-03-02T22:46:03.989Z,27.03
2019-03-02T22:48:32.101Z,28.27
2019-03-02T22:51:00.211Z,28.00
2019-03-02T22:53:28.988Z,25.90
2019-03-02T22:55:57.192Z,25.47
2019-03-02T22:58:30.922Z,28.23
2019-03-02T23:01:57.407Z,27.33
2019-03-02T23:04:27.258Z,26.77
2019-03-02T23:06:55.378Z,24.73
2019-03-02T23:09:25.093Z,27.13
2019-03-02T23:11:53.206Z,25.80
2019-03-02T23:14:23.112Z,24.23
2019-03-02T23:16:51.236Z,26.17
2019-03-02T23:19:19.441Z,24.67
2019-03-02T23:21:48.380Z,23.63
2019-03-02T23:24:35.097Z,22.67
2019-03-02T23:27:04.467Z,24.87
2019-03-02T23:29:32.654Z,22.80
2019-03-02T23:32:02.264Z,22.67
2019-03-02T23:34:36.998Z,21.77
2019-03-02T23:37:01.701Z,21.20
2019-03-02T23:39:29.799Z,21.63
2019-03-02T23:41:58.620Z,22.17
2019-03-02T23:44:28.519Z,21.17
2019-03-02T23:46:56.611Z,19.93
2019-03-02T23:49:25.665Z,19.33
2019-03-02T23:51:55.161Z,20.67
2019-03-02T23:54:25.969Z,17.80
2019-03-02T23:57:13.029Z,19.43
2019-03-02T23:59:41.822Z,19.03
